createdAt,value
2022-08-20T09:53:01.685Z,10.90
2022-08-20T09:57:35.218Z,13.30
2022-08-20T09:58:35.195Z,14.40
2022-08-20T09:59:35.174Z,16.80
2022-08-20T10:00:35.178Z,15.20
2022-08-20T10:04:38.342Z,14.30
2022-08-20T10:06:04.023Z,12.90
2022-08-20T10:07:04.001Z,15.30
2022-08-20T10:08:03.974Z,14.90
2022-08-20T10:17:12.099Z,11.70
2022-08-20T10:18:12.186Z,13.90
2022-08-20T10:19:12.059Z,14.80
2022-08-20T10:28:18.880Z,10.20
2022-08-20T10:29:18.849Z,12.40
2022-08-20T10:30:18.849Z,11.40
2022-08-20T10:31:18.824Z,11.70
2022-08-20T10:37:10.607Z,9.90
2022-08-20T10:44:44.512Z,9.00
2022-08-20T10:45:44.497Z,12.20
2022-08-20T10:46:44.472Z,12.40
2022-08-20T11:08:33.697Z,9.90
2022-08-20T11:09:26.609Z,8.70
2022-08-20T11:10:26.641Z,8.70
2022-08-20T11:11:26.572Z,8.20
2022-08-20T11:12:26.566Z,7.60
2022-08-20T11:21:42.956Z,6.30
2022-08-20T11:22:42.928Z,8.40
2022-08-20T11:23:42.915Z,7.50
2022-08-20T11:24:42.911Z,7.40
2022-08-20T11:34:01.405Z,5.30
2022-08-20T11:35:13.736Z,6.00
2022-08-20T11:36:01.339Z,8.70
2022-08-20T11:37:01.338Z,6.80
2022-08-20T11:38:01.325Z,7.40
2022-08-20T11:39:01.300Z,7.00
2022-08-20T11:40:01.302Z,7.70
2022-08-20T11:44:26.732Z,7.60
2022-08-20T11:45:26.704Z,7.20
2022-08-20T11:46:28.714Z,6.50
2022-08-20T11:47:26.666Z,8.10
2022-08-20T11:48:26.655Z,6.30
2022-08-20T11:49:26.649Z,7.70
2022-08-20T11:50:26.628Z,8.20
2022-08-20T11:51:26.627Z,6.00
2022-08-20T11:52:26.601Z,6.60
2022-08-20T11:53:26.589Z,7.40
2022-08-20T11:54:26.587Z,6.80
2022-08-20T11:55:28.463Z,6.30
2022-08-20T11:56:26.571Z,8.60
2022-08-20T12:00:32.106Z,8.20
2022-08-20T12:01:31.018Z,7.00
2022-08-20T12:02:31.030Z,7.80
2022-08-20T12:03:30.970Z,7.40
2022-08-20T12:04:30.956Z,6.50
2022-08-20T12:09:50.386Z,3.50
2022-08-20T12:10:45.726Z,5.80
2022-08-20T12:11:45.726Z,5.30
2022-08-20T12:12:45.701Z,5.00
2022-08-20T12:13:48.448Z,5.70
2022-08-20T12:14:45.685Z,4.60
2022-08-20T12:15:45.663Z,5.30
2022-08-20T12:19:06.467Z,3.30
2022-08-20T12:20:06.432Z,5.70
2022-08-20T12:21:06.433Z,8.00
2022-08-20T12:22:24.474Z,5.20
2022-08-20T12:23:06.405Z,5.70
2022-08-20T12:24:06.384Z,3.90
2022-08-20T12:25:06.380Z,5.70
2022-08-20T12:26:06.373Z,3.90
2022-08-20T12:27:06.349Z,4.30
2022-08-20T12:28:06.346Z,5.10
2022-08-20T12:29:06.334Z,3.30
2022-08-20T12:30:06.316Z,3.80
2022-08-20T12:31:06.315Z,4.70
2022-08-20T12:32:06.309Z,4.30
2022-08-20T12:33:06.278Z,4.20
2022-08-20T12:34:06.268Z,5.80
2022-08-20T12:35:06.289Z,4.60
2022-08-20T12:36:06.269Z,5.10
2022-08-20T12:37:06.240Z,5.90
2022-08-20T12:38:06.224Z,4.60
2022-08-20T12:39:06.215Z,4.90
2022-08-20T12:40:06.279Z,4.50
2022-08-20T12:41:06.203Z,3.90
2022-08-20T12:42:06.187Z,5.10
2022-08-20T12:43:06.179Z,4.30
2022-08-20T12:44:06.157Z,3.60
2022-08-20T12:45:06.149Z,4.20
2022-08-20T12:49:03.182Z,8.50
2022-08-20T12:50:03.126Z,3.90
2022-08-20T12:51:03.129Z,2.90
2022-08-20T12:52:03.110Z,5.00
2022-08-20T12:53:03.099Z,4.00
2022-08-20T12:54:03.081Z,5.10
2022-08-20T12:55:03.067Z,3.70
2022-08-20T12:56:03.071Z,4.70
2022-08-20T12:57:03.048Z,4.40
2022-08-20T12:58:03.039Z,6.70
2022-08-20T12:59:03.037Z,5.60
2022-08-20T13:00:03.026Z,4.00
2022-08-20T13:01:03.068Z,5.00
2022-08-20T13:02:09.257Z,3.80
2022-08-20T13:03:02.992Z,5.40
2022-08-20T13:04:02.989Z,3.70
2022-08-20T13:05:05.225Z,3.80
2022-08-20T13:06:02.975Z,4.00
2022-08-20T13:07:02.952Z,4.70
2022-08-20T13:08:02.935Z,4.60
2022-08-20T13:09:02.931Z,4.60
2022-08-20T13:10:02.916Z,4.10
2022-08-20T13:11:02.913Z,4.20
2022-08-20T13:12:02.903Z,4.80
2022-08-20T13:13:02.885Z,6.30
2022-08-20T13:14:02.877Z,5.30
2022-08-20T13:15:02.875Z,6.00
2022-08-20T13:16:02.873Z,4.70
2022-08-20T13:17:02.858Z,5.90
2022-08-20T13:18:02.850Z,5.60
2022-08-20T13:20:38.282Z,6.20
2022-08-20T13:21:38.293Z,7.10
2022-08-20T13:22:38.270Z,8.10
2022-08-20T13:29:38.980Z,6.20
2022-08-20T13:30:38.955Z,6.60
2022-08-20T13:31:38.966Z,7.30
2022-08-20T13:32:38.942Z,6.80
2022-08-20T13:33:38.935Z,6.20
2022-08-20T13:34:38.932Z,6.10
2022-08-20T13:37:10.476Z,6.10
2022-08-20T13:38:10.438Z,6.10
2022-08-20T13:39:10.427Z,5.30
2022-08-20T13:40:10.468Z,7.80
2022-08-20T13:41:10.408Z,6.30
2022-08-20T13:42:10.410Z,5.90
2022-08-20T13:43:12.026Z,5.80
2022-08-20T13:44:10.386Z,5.30
2022-08-20T13:45:10.369Z,5.10
2022-08-20T13:46:10.359Z,6.40
2022-08-20T13:47:10.363Z,5.80
2022-08-20T13:48:14.913Z,5.50
2022-08-20T13:49:10.342Z,5.10
2022-08-20T13:50:10.327Z,5.60
2022-08-20T13:51:10.325Z,6.20
2022-08-20T13:52:10.320Z,4.70
2022-08-20T13:53:10.298Z,7.00
2022-08-20T13:54:10.801Z,5.80
2022-08-20T13:55:10.294Z,5.00
2022-08-20T13:56:10.279Z,5.50
2022-08-20T13:57:10.267Z,5.30
2022-08-20T13:58:10.260Z,5.80
2022-08-20T14:00:22.166Z,4.90
2022-08-20T14:05:07.392Z,5.40
2022-08-20T14:06:07.366Z,5.30
2022-08-20T14:07:07.376Z,6.80
2022-08-20T14:08:07.351Z,5.00
2022-08-20T14:09:07.355Z,5.10
2022-08-20T14:10:07.344Z,4.50
2022-08-20T14:11:07.325Z,5.80
2022-08-20T14:12:07.326Z,4.80
2022-08-20T14:13:07.316Z,5.10
2022-08-20T14:14:07.303Z,6.60
2022-08-20T14:15:07.290Z,4.60
2022-08-20T14:16:07.277Z,4.50
2022-08-20T14:17:07.279Z,5.20
2022-08-20T14:18:07.267Z,5.90
2022-08-20T14:19:07.248Z,6.60
2022-08-20T14:20:07.235Z,6.20
2022-08-20T14:24:21.492Z,5.60
2022-08-20T14:25:21.474Z,5.90
2022-08-20T14:26:21.468Z,6.30
2022-08-20T14:27:21.460Z,5.70
2022-08-20T14:28:21.468Z,5.70
2022-08-20T14:29:21.449Z,6.20
2022-08-20T14:30:21.435Z,6.00
2022-08-20T14:31:21.427Z,5.90
2022-08-20T14:32:21.416Z,6.70
2022-08-20T14:33:21.418Z,6.40
2022-08-20T14:34:21.387Z,7.40
2022-08-20T14:35:21.380Z,5.10
2022-08-20T14:36:21.372Z,5.80
2022-08-20T14:37:21.371Z,6.80
2022-08-20T14:38:21.379Z,5.40
2022-08-20T14:39:21.346Z,5.60
2022-08-20T14:40:21.395Z,7.10
2022-08-20T14:41:21.333Z,5.30
2022-08-20T14:42:21.326Z,7.90
2022-08-20T14:43:21.337Z,5.80
2022-08-20T14:44:21.308Z,5.90
2022-08-20T14:45:21.313Z,6.00
2022-08-20T14:46:21.304Z,5.40
2022-08-20T14:48:40.349Z,8.70
2022-08-20T14:49:40.300Z,6.30
2022-08-20T14:50:40.295Z,5.80
2022-08-20T14:51:40.289Z,4.90
2022-08-20T14:52:40.289Z,6.70
2022-08-20T14:53:40.791Z,5.90
2022-08-20T14:54:40.300Z,4.50
2022-08-20T14:55:40.263Z,5.10
2022-08-20T14:56:40.251Z,5.00
2022-08-20T14:57:40.254Z,5.30
2022-08-20T14:58:40.249Z,6.80
2022-08-20T14:59:40.231Z,6.40
2022-08-20T15:00:40.275Z,5.90
2022-08-20T15:03:53.511Z,8.60
2022-08-20T15:05:00.044Z,3.90
2022-08-20T15:06:15.279Z,4.40
2022-08-20T15:07:13.162Z,6.30
2022-08-20T15:08:11.135Z,6.50
2022-08-20T15:09:11.054Z,6.30
2022-08-20T15:10:11.040Z,5.80
2022-08-20T15:11:11.040Z,6.60
2022-08-20T15:12:11.022Z,4.90
2022-08-20T15:13:11.030Z,5.10
2022-08-20T15:14:11.020Z,5.80
2022-08-20T15:15:15.549Z,5.60
2022-08-20T15:16:10.991Z,5.60
2022-08-20T15:17:10.992Z,5.80
2022-08-20T15:18:10.987Z,5.70
2022-08-20T15:19:10.982Z,4.30
2022-08-20T15:20:10.961Z,5.30
2022-08-20T15:21:10.967Z,5.20
2022-08-20T15:22:10.955Z,5.90
2022-08-20T15:23:10.967Z,7.40
2022-08-20T15:24:15.776Z,6.30
2022-08-20T15:25:10.938Z,7.00
2022-08-20T15:26:10.924Z,5.10
2022-08-20T15:27:10.915Z,7.20
2022-08-20T15:28:10.922Z,7.20
2022-08-20T15:29:10.912Z,6.20
2022-08-20T15:30:10.911Z,6.80
2022-08-20T15:31:10.902Z,8.10
2022-08-20T15:32:10.885Z,8.40
2022-08-20T15:33:10.900Z,4.80
2022-08-20T15:34:10.883Z,6.70
2022-08-20T15:35:10.879Z,6.30
2022-08-20T15:36:10.871Z,6.40
2022-08-20T15:37:10.853Z,6.10
2022-08-20T15:38:10.873Z,7.10
2022-08-20T15:39:10.845Z,5.50
2022-08-20T15:40:10.981Z,3.80
2022-08-20T15:41:10.831Z,6.40
2022-08-20T15:42:10.827Z,5.50
2022-08-20T15:43:10.826Z,6.50
2022-08-20T15:44:10.826Z,6.90
2022-08-20T15:45:10.816Z,4.20
2022-08-20T15:46:10.802Z,5.30
2022-08-20T15:47:10.808Z,5.40
2022-08-20T15:48:10.803Z,6.30
2022-08-20T15:49:10.804Z,5.10
2022-08-20T15:50:14.116Z,5.70
2022-08-20T15:51:10.787Z,6.60
2022-08-20T15:52:10.771Z,7.00
2022-08-20T15:53:10.787Z,4.70
2022-08-20T15:54:10.781Z,4.10
2022-08-20T15:55:10.756Z,6.70
2022-08-20T15:56:11.224Z,5.40
2022-08-20T15:57:10.746Z,6.00
2022-08-20T15:58:10.747Z,5.10
2022-08-20T15:59:10.753Z,6.00
2022-08-20T16:00:10.727Z,6.30
2022-08-20T16:01:24.690Z,6.00
2022-08-20T16:02:10.723Z,6.20
2022-08-20T16:03:10.717Z,6.00
2022-08-20T16:04:10.732Z,5.10
2022-08-20T16:05:10.714Z,4.90
2022-08-20T16:06:13.865Z,5.70
2022-08-20T16:07:10.694Z,6.70
2022-08-20T16:08:10.693Z,6.70
2022-08-20T16:09:10.699Z,5.30
2022-08-20T16:10:15.087Z,5.80
2022-08-20T16:11:10.674Z,4.90
2022-08-20T16:12:10.677Z,6.00
2022-08-20T16:13:10.660Z,6.10
2022-08-20T16:14:10.669Z,5.20
2022-08-20T16:15:10.648Z,6.00
2022-08-20T16:16:10.642Z,5.40
2022-08-20T16:17:10.637Z,5.40
2022-08-20T16:18:10.639Z,5.40
2022-08-20T16:19:10.641Z,5.30
2022-08-20T16:20:10.621Z,5.20
2022-08-20T16:21:10.626Z,7.10
2022-08-20T16:22:10.618Z,4.50
2022-08-20T16:23:10.615Z,7.20
2022-08-20T16:24:10.790Z,4.80
2022-08-20T16:25:10.610Z,6.60
2022-08-20T16:26:10.600Z,5.40
2022-08-20T16:27:10.586Z,4.60
2022-08-20T16:28:10.591Z,4.90
2022-08-20T16:29:11.656Z,5.10
2022-08-20T16:30:10.572Z,6.40
2022-08-20T16:31:14.018Z,5.50
2022-08-20T16:32:10.562Z,4.90
2022-08-20T16:33:10.555Z,4.20
2022-08-20T16:34:32.273Z,4.90
2022-08-20T16:35:10.554Z,5.60
2022-08-20T16:36:10.553Z,4.80
2022-08-20T16:37:10.568Z,5.00
2022-08-20T16:38:10.530Z,7.20
2022-08-20T16:39:10.548Z,6.50
2022-08-20T16:40:10.551Z,4.60
2022-08-20T16:41:10.520Z,4.50
2022-08-20T16:42:10.509Z,3.90
2022-08-20T16:43:10.510Z,3.90
2022-08-20T16:44:10.519Z,4.30
2022-08-20T16:45:10.497Z,4.20
2022-08-20T16:46:10.494Z,3.70
2022-08-20T16:47:13.896Z,3.50
2022-08-20T16:48:10.479Z,5.50
2022-08-20T16:49:10.494Z,4.90
2022-08-20T16:50:10.462Z,4.50
2022-08-20T16:51:10.457Z,5.10
2022-08-20T16:52:10.453Z,3.20
2022-08-20T16:53:10.454Z,4.00
2022-08-20T16:54:10.450Z,6.00
2022-08-20T16:55:10.430Z,3.70
2022-08-20T16:56:10.430Z,4.00
2022-08-20T16:57:15.117Z,4.00
2022-08-20T16:58:10.411Z,5.00
2022-08-20T16:59:10.427Z,3.60
2022-08-20T17:00:10.395Z,4.30
2022-08-20T17:01:10.466Z,4.70
2022-08-20T17:02:10.891Z,3.80
2022-08-20T17:03:10.378Z,3.80
2022-08-20T17:04:10.389Z,4.60
2022-08-20T17:05:10.357Z,3.30
2022-08-20T17:06:10.347Z,3.90
2022-08-20T17:07:11.903Z,4.80
2022-08-20T17:08:10.343Z,5.20
2022-08-20T17:09:10.436Z,3.80
2022-08-20T17:10:10.308Z,3.90
2022-08-20T17:11:10.312Z,4.50
2022-08-20T17:12:10.300Z,4.10
2022-08-20T17:13:10.276Z,4.40
2022-08-20T17:14:10.291Z,3.50
